sensor_id;sensor_type;location;lat;lon;timestamp;P1;durP1;ratioP1;P2;durP2;ratioP2
55003;SDS011;40900;52.710;6.438;2023-04-20T00:00:21;5.63;;;3.55;;
55003;SDS011;40900;52.710;6.438;2023-04-20T00:02:47;7.80;;;3.20;;
55003;SDS011;40900;52.710;6.438;2023-04-20T00:05:12;8.30;;;3.50;;
55003;SDS011;40900;52.710;6.438;2023-04-20T00:07:38;10.63;;;3.92;;
55003;SDS011;40900;52.710;6.438;2023-04-20T00:10:05;10.60;;;3.88;;
55003;SDS011;40900;52.710;6.438;2023-04-20T00:12:32;6.30;;;3.65;;
55003;SDS011;40900;52.710;6.438;2023-04-20T00:14:58;8.05;;;3.35;;
55003;SDS011;40900;52.710;6.438;2023-04-20T00:17:24;11.10;;;3.83;;
55003;SDS011;40900;52.710;6.438;2023-04-20T00:19:50;6.03;;;3.75;;
55003;SDS011;40900;52.710;6.438;2023-04-20T00:22:15;6.18;;;3.60;;
55003;SDS011;40900;52.710;6.438;2023-04-20T00:24:41;5.82;;;3.50;;
55003;SDS011;40900;52.710;6.438;2023-04-20T00:27:07;7.70;;;3.47;;
55003;SDS011;40900;52.710;6.438;2023-04-20T00:29:32;8.73;;;3.90;;
55003;SDS011;40900;52.710;6.438;2023-04-20T00:31:58;6.93;;;3.90;;
55003;SDS011;40900;52.710;6.438;2023-04-20T00:34:24;5.78;;;4.00;;
55003;SDS011;40900;52.710;6.438;2023-04-20T00:36:50;11.30;;;3.45;;
55003;SDS011;40900;52.710;6.438;2023-04-20T00:39:15;6.93;;;3.75;;
55003;SDS011;40900;52.710;6.438;2023-04-20T00:41:41;6.07;;;3.47;;
55003;SDS011;40900;52.710;6.438;2023-04-20T00:44:07;6.30;;;3.75;;
55003;SDS011;40900;52.710;6.438;2023-04-20T00:46:35;7.85;;;3.95;;
55003;SDS011;40900;52.710;6.438;2023-04-20T00:49:01;5.85;;;4.13;;
55003;SDS011;40900;52.710;6.438;2023-04-20T00:51:27;5.88;;;3.40;;
55003;SDS011;40900;52.710;6.438;2023-04-20T00:53:53;8.05;;;3.97;;
55003;SDS011;40900;52.710;6.438;2023-04-20T00:56:19;5.38;;;3.70;;
55003;SDS011;40900;52.710;6.438;2023-04-20T00:58:45;5.72;;;3.78;;
55003;SDS011;40900;52.710;6.438;2023-04-20T01:01:11;5.57;;;3.92;;
55003;SDS011;40900;52.710;6.438;2023-04-20T01:03:41;6.97;;;3.50;;
55003;SDS011;40900;52.710;6.438;2023-04-20T01:06:08;6.03;;;3.45;;
55003;SDS011;40900;52.710;6.438;2023-04-20T01:08:33;6.85;;;3.70;;
55003;SDS011;40900;52.710;6.438;2023-04-20T01:10:59;5.35;;;3.67;;
55003;SDS011;40900;52.710;6.438;2023-04-20T01:13:25;8.65;;;3.67;;
55003;SDS011;40900;52.710;6.438;2023-04-20T01:15:51;7.20;;;2.88;;
55003;SDS011;40900;52.710;6.438;2023-04-20T01:18:16;8.68;;;3.65;;
55003;SDS011;40900;52.710;6.438;2023-04-20T01:20:44;5.32;;;2.90;;
55003;SDS011;40900;52.710;6.438;2023-04-20T01:23:11;5.72;;;3.40;;
55003;SDS011;40900;52.710;6.438;2023-04-20T01:25:37;5.45;;;3.05;;
55003;SDS011;40900;52.710;6.438;2023-04-20T01:28:02;5.05;;;2.97;;
55003;SDS011;40900;52.710;6.438;2023-04-20T01:30:29;5.95;;;3.17;;
55003;SDS011;40900;52.710;6.438;2023-04-20T01:32:55;8.98;;;3.10;;
55003;SDS011;40900;52.710;6.438;2023-04-20T01:35:21;11.18;;;3.35;;
55003;SDS011;40900;52.710;6.438;2023-04-20T01:37:47;5.63;;;3.30;;
55003;SDS011;40900;52.710;6.438;2023-04-20T01:40:12;5.70;;;2.72;;
55003;SDS011;40900;52.710;6.438;2023-04-20T01:42:39;5.18;;;2.95;;
55003;SDS011;40900;52.710;6.438;2023-04-20T01:45:05;5.03;;;2.58;;
55003;SDS011;40900;52.710;6.438;2023-04-20T01:47:31;7.28;;;2.80;;
55003;SDS011;40900;52.710;6.438;2023-04-20T01:49:58;6.47;;;2.67;;
55003;SDS011;40900;52.710;6.438;2023-04-20T01:52:23;5.50;;;2.88;;
55003;SDS011;40900;52.710;6.438;2023-04-20T01:54:49;5.90;;;2.85;;
55003;SDS011;40900;52.710;6.438;2023-04-20T01:57:15;7.50;;;2.78;;
55003;SDS011;40900;52.710;6.438;2023-04-20T01:59:40;9.63;;;2.55;;
55003;SDS011;40900;52.710;6.438;2023-04-20T02:02:06;3.50;;;2.20;;
55003;SDS011;40900;52.710;6.438;2023-04-20T02:04:32;3.97;;;2.60;;
55003;SDS011;40900;52.710;6.438;2023-04-20T02:06:58;7.88;;;2.88;;
55003;SDS011;40900;52.710;6.438;2023-04-20T02:09:23;3.88;;;2.80;;
55003;SDS011;40900;52.710;6.438;2023-04-20T02:11:49;8.07;;;2.50;;
55003;SDS011;40900;52.710;6.438;2023-04-20T02:14:15;6.32;;;2.80;;
55003;SDS011;40900;52.710;6.438;2023-04-20T02:16:41;4.70;;;2.90;;
55003;SDS011;40900;52.710;6.438;2023-04-20T02:19:06;6.07;;;2.53;;
55003;SDS011;40900;52.710;6.438;2023-04-20T02:21:32;7.10;;;2.80;;
55003;SDS011;40900;52.710;6.438;2023-04-20T02:23:58;5.60;;;2.80;;
55003;SDS011;40900;52.710;6.438;2023-04-20T02:26:25;5.63;;;2.33;;
55003;SDS011;40900;52.710;6.438;2023-04-20T02:28:51;8.45;;;2.78;;
55003;SDS011;40900;52.710;6.438;2023-04-20T02:31:17;7.47;;;2.60;;
55003;SDS011;40900;52.710;6.438;2023-04-20T02:33:42;3.35;;;2.28;;
55003;SDS011;40900;52.710;6.438;2023-04-20T02:36:08;5.05;;;2.40;;
55003;SDS011;40900;52.710;6.438;2023-04-20T02:38:34;5.25;;;2.63;;
55003;SDS011;40900;52.710;6.438;2023-04-20T02:41:00;7.20;;;2.53;;
55003;SDS011;40900;52.710;6.438;2023-04-20T02:43:25;4.22;;;2.55;;
55003;SDS011;40900;52.710;6.438;2023-04-20T02:45:51;8.25;;;2.50;;
55003;SDS011;40900;52.710;6.438;2023-04-20T02:48:17;5.22;;;2.60;;
55003;SDS011;40900;52.710;6.438;2023-04-20T02:50:42;6.57;;;2.40;;
55003;SDS011;40900;52.710;6.438;2023-04-20T02:53:08;4.60;;;2.30;;
55003;SDS011;40900;52.710;6.438;2023-04-20T02:55:34;5.70;;;2.38;;
55003;SDS011;40900;52.710;6.438;2023-04-20T02:58:00;6.28;;;2.60;;
55003;SDS011;40900;52.710;6.438;2023-04-20T03:00:25;8.02;;;2.30;;
55003;SDS011;40900;52.710;6.438;2023-04-20T03:02:51;6.88;;;1.98;;
55003;SDS011;40900;52.710;6.438;2023-04-20T03:05:17;12.18;;;2.80;;
55003;SDS011;40900;52.710;6.438;2023-04-20T03:07:42;7.70;;;2.83;;
55003;SDS011;40900;52.710;6.438;2023-04-20T03:10:08;4.55;;;2.20;;
55003;SDS011;40900;52.710;6.438;2023-04-20T03:12:35;8.15;;;2.55;;
55003;SDS011;40900;52.710;6.438;2023-04-20T03:15:02;6.15;;;2.65;;
55003;SDS011;40900;52.710;6.438;2023-04-20T03:17:31;5.10;;;2.45;;
55003;SDS011;40900;52.710;6.438;2023-04-20T03:19:57;8.23;;;2.78;;
55003;SDS011;40900;52.710;6.438;2023-04-20T03:22:23;12.68;;;3.13;;
55003;SDS011;40900;52.710;6.438;2023-04-20T03:24:48;6.18;;;2.60;;
55003;SDS011;40900;52.710;6.438;2023-04-20T03:27:16;4.60;;;2.50;;
55003;SDS011;40900;52.710;6.438;2023-04-20T03:29:41;9.57;;;3.08;;
55003;SDS011;40900;52.710;6.438;2023-04-20T03:32:07;8.15;;;2.47;;
55003;SDS011;40900;52.710;6.438;2023-04-20T03:34:33;6.07;;;2.35;;
55003;SDS011;40900;52.710;6.438;2023-04-20T03:36:58;10.07;;;2.40;;
55003;SDS011;40900;52.710;6.438;2023-04-20T03:39:24;9.35;;;2.83;;
55003;SDS011;40900;52.710;6.438;2023-04-20T03:41:50;7.50;;;2.22;;
55003;SDS011;40900;52.710;6.438;2023-04-20T03:44:15;5.80;;;2.92;;
55003;SDS011;40900;52.710;6.438;2023-04-20T03:46:41;7.05;;;2.40;;
55003;SDS011;40900;52.710;6.438;2023-04-20T03:49:07;6.72;;;2.60;;
55003;SDS011;40900;52.710;6.438;2023-04-20T03:51:32;8.02;;;2.33;;
55003;SDS011;40900;52.710;6.438;2023-04-20T03:53:58;6.43;;;2.28;;
55003;SDS011;40900;52.710;6.438;2023-04-20T03:56:24;8.30;;;2.40;;
55003;SDS011;40900;52.710;6.438;2023-04-20T03:58:51;7.75;;;2.95;;
55003;SDS011;40900;52.710;6.438;2023-04-20T04:01:17;7.85;;;2.53;;
55003;SDS011;40900;52.710;6.438;2023-04-20T04:03:42;7.05;;;2.50;;
55003;SDS011;40900;52.710;6.438;2023-04-20T04:06:09;6.22;;;2.60;;
55003;SDS011;40900;52.710;6.438;2023-04-20T04:08:35;10.40;;;2.58;;
55003;SDS011;40900;52.710;6.438;2023-04-20T04:11:01;8.65;;;2.45;;
55003;SDS011;40900;52.710;6.438;2023-04-20T04:13:26;6.80;;;2.55;;
55003;SDS011;40900;52.710;6.438;2023-04-20T04:15:53;7.72;;;2.53;;
55003;SDS011;40900;52.710;6.438;2023-04-20T04:18:19;7.28;;;2.97;;
55003;SDS011;40900;52.710;6.438;2023-04-20T04:20:45;3.95;;;2.22;;
55003;SDS011;40900;52.710;6.438;2023-04-20T04:23:11;8.25;;;3.38;;
55003;SDS011;40900;52.710;6.438;2023-04-20T04:25:37;6.07;;;3.20;;
55003;SDS011;40900;52.710;6.438;2023-04-20T04:28:04;5.15;;;3.00;;
55003;SDS011;40900;52.710;6.438;2023-04-20T04:30:31;9.75;;;3.00;;
55003;SDS011;40900;52.710;6.438;2023-04-20T04:32:57;5.80;;;3.03;;
55003;SDS011;40900;52.710;6.438;2023-04-20T04:35:23;7.65;;;2.70;;
55003;SDS011;40900;52.710;6.438;2023-04-20T04:37:50;7.68;;;3.28;;
55003;SDS011;40900;52.710;6.438;2023-04-20T04:40:16;6.75;;;2.92;;
55003;SDS011;40900;52.710;6.438;2023-04-20T04:42:42;7.15;;;2.90;;
55003;SDS011;40900;52.710;6.438;2023-04-20T04:45:09;5.15;;;3.15;;
55003;SDS011;40900;52.710;6.438;2023-04-20T04:47:37;8.80;;;3.03;;
55003;SDS011;40900;52.710;6.438;2023-04-20T04:50:05;4.88;;;2.53;;
55003;SDS011;40900;52.710;6.438;2023-04-20T04:52:33;9.35;;;3.10;;
55003;SDS011;40900;52.710;6.438;2023-04-20T04:54:59;5.30;;;2.90;;
55003;SDS011;40900;52.710;6.438;2023-04-20T04:57:25;8.98;;;3.10;;
55003;SDS011;40900;52.710;6.438;2023-04-20T04:59:51;7.43;;;2.80;;
55003;SDS011;40900;52.710;6.438;2023-04-20T05:02:17;8.30;;;3.38;;
55003;SDS011;40900;52.710;6.438;2023-04-20T05:04:42;8.93;;;3.00;;
55003;SDS011;40900;52.710;6.438;2023-04-20T05:07:08;7.88;;;2.53;;
55003;SDS011;40900;52.710;6.438;2023-04-20T05:09:38;9.15;;;2.97;;
55003;SDS011;40900;52.710;6.438;2023-04-20T05:12:04;6.95;;;2.90;;
55003;SDS011;40900;52.710;6.438;2023-04-20T05:14:30;7.35;;;2.65;;
55003;SDS011;40900;52.710;6.438;2023-04-20T05:16:59;8.93;;;2.72;;
55003;SDS011;40900;52.710;6.438;2023-04-20T05:19:25;5.25;;;2.72;;
55003;SDS011;40900;52.710;6.438;2023-04-20T05:21:51;8.98;;;2.80;;
55003;SDS011;40900;52.710;6.438;2023-04-20T05:24:17;8.35;;;3.00;;
55003;SDS011;40900;52.710;6.438;2023-04-20T05:26:43;5.78;;;2.90;;
55003;SDS011;40900;52.710;6.438;2023-04-20T05:29:10;5.00;;;3.00;;
55003;SDS011;40900;52.710;6.438;2023-04-20T05:31:35;7.28;;;2.97;;
55003;SDS011;40900;52.710;6.438;2023-04-20T05:34:01;4.97;;;2.20;;
55003;SDS011;40900;52.710;6.438;2023-04-20T05:36:27;5.13;;;2.65;;
55003;SDS011;40900;52.710;6.438;2023-04-20T05:38:54;10.30;;;3.00;;
55003;SDS011;40900;52.710;6.438;2023-04-20T05:41:20;8.50;;;2.90;;
55003;SDS011;40900;52.710;6.438;2023-04-20T05:43:50;7.40;;;2.80;;
55003;SDS011;40900;52.710;6.438;2023-04-20T05:46:19;8.75;;;2.67;;
55003;SDS011;40900;52.710;6.438;2023-04-20T05:48:45;6.00;;;3.40;;
55003;SDS011;40900;52.710;6.438;2023-04-20T05:51:11;5.97;;;2.70;;
55003;SDS011;40900;52.710;6.438;2023-04-20T05:53:37;6.60;;;3.33;;
55003;SDS011;40900;52.710;6.438;2023-04-20T05:56:03;6.78;;;2.92;;
55003;SDS011;40900;52.710;6.438;2023-04-20T05:58:31;3.95;;;2.70;;
55003;SDS011;40900;52.710;6.438;2023-04-20T06:00:57;10.80;;;3.33;;
55003;SDS011;40900;52.710;6.438;2023-04-20T06:03:23;5.85;;;3.10;;
55003;SDS011;40900;52.710;6.438;2023-04-20T06:05:49;4.95;;;3.33;;
55003;SDS011;40900;52.710;6.438;2023-04-20T06:08:15;15.00;;;3.75;;
55003;SDS011;40900;52.710;6.438;2023-04-20T06:10:43;5.85;;;3.17;;
55003;SDS011;40900;52.710;6.438;2023-04-20T06:13:08;9.05;;;2.75;;
55003;SDS011;40900;52.710;6.438;2023-04-20T06:15:34;5.75;;;3.15;;
55003;SDS011;40900;52.710;6.438;2023-04-20T06:18:00;13.30;;;3.15;;
55003;SDS011;40900;52.710;6.438;2023-04-20T06:20:26;5.28;;;3.10;;
55003;SDS011;40900;52.710;6.438;2023-04-20T06:22:52;7.07;;;2.97;;
55003;SDS011;40900;52.710;6.438;2023-04-20T06:25:18;10.63;;;3.28;;
55003;SDS011;40900;52.710;6.438;2023-04-20T06:27:44;7.40;;;3.28;;
55003;SDS011;40900;52.710;6.438;2023-04-20T06:30:10;6.82;;;3.50;;
55003;SDS011;40900;52.710;6.438;2023-04-20T06:32:36;7.30;;;3.50;;
55003;SDS011;40900;52.710;6.438;2023-04-20T06:35:02;10.63;;;3.63;;
55003;SDS011;40900;52.710;6.438;2023-04-20T06:37:28;9.30;;;3.55;;
55003;SDS011;40900;52.710;6.438;2023-04-20T06:39:54;6.78;;;3.35;;
55003;SDS011;40900;52.710;6.438;2023-04-20T06:42:20;7.13;;;3.33;;
55003;SDS011;40900;52.710;6.438;2023-04-20T06:44:46;8.70;;;4.28;;
55003;SDS011;40900;52.710;6.438;2023-04-20T06:47:12;8.77;;;4.20;;
55003;SDS011;40900;52.710;6.438;2023-04-20T06:49:37;9.75;;;3.85;;
55003;SDS011;40900;52.710;6.438;2023-04-20T06:52:06;8.43;;;3.75;;
55003;SDS011;40900;52.710;6.438;2023-04-20T06:54:31;9.15;;;4.05;;
55003;SDS011;40900;52.710;6.438;2023-04-20T06:56:57;8.27;;;4.40;;
55003;SDS011;40900;52.710;6.438;2023-04-20T06:59:23;11.15;;;7.15;;
55003;SDS011;40900;52.710;6.438;2023-04-20T07:01:49;8.27;;;4.40;;
55003;SDS011;40900;52.710;6.438;2023-04-20T07:04:16;8.30;;;4.60;;
55003;SDS011;40900;52.710;6.438;2023-04-20T07:06:41;9.68;;;5.05;;
55003;SDS011;40900;52.710;6.438;2023-04-20T07:09:07;12.27;;;4.90;;
55003;SDS011;40900;52.710;6.438;2023-04-20T07:11:33;6.93;;;4.38;;
55003;SDS011;40900;52.710;6.438;2023-04-20T07:13:59;8.70;;;4.57;;
55003;SDS011;40900;52.710;6.438;2023-04-20T07:16:24;6.93;;;4.38;;
55003;SDS011;40900;52.710;6.438;2023-04-20T07:18:50;9.68;;;4.70;;
55003;SDS011;40900;52.710;6.438;2023-04-20T07:21:16;8.15;;;4.53;;
55003;SDS011;40900;52.710;6.438;2023-04-20T07:23:42;8.95;;;4.57;;
55003;SDS011;40900;52.710;6.438;2023-04-20T07:26:07;10.05;;;4.50;;
55003;SDS011;40900;52.710;6.438;2023-04-20T07:28:33;8.93;;;4.95;;
55003;SDS011;40900;52.710;6.438;2023-04-20T07:30:59;8.20;;;4.50;;
55003;SDS011;40900;52.710;6.438;2023-04-20T07:33:25;7.53;;;4.40;;
55003;SDS011;40900;52.710;6.438;2023-04-20T07:35:51;7.78;;;4.30;;
55003;SDS011;40900;52.710;6.438;2023-04-20T07:38:17;12.73;;;5.10;;
55003;SDS011;40900;52.710;6.438;2023-04-20T07:40:43;8.07;;;4.07;;
55003;SDS011;40900;52.710;6.438;2023-04-20T07:43:08;8.88;;;4.60;;
55003;SDS011;40900;52.710;6.438;2023-04-20T07:45:34;11.10;;;5.15;;
55003;SDS011;40900;52.710;6.438;2023-04-20T07:48:03;7.30;;;4.05;;
55003;SDS011;40900;52.710;6.438;2023-04-20T07:50:29;7.93;;;4.60;;
55003;SDS011;40900;52.710;6.438;2023-04-20T07:52:55;6.95;;;4.30;;
55003;SDS011;40900;52.710;6.438;2023-04-20T07:55:20;8.10;;;4.88;;
55003;SDS011;40900;52.710;6.438;2023-04-20T07:57:46;7.45;;;4.05;;
55003;SDS011;40900;52.710;6.438;2023-04-20T08:00:12;7.80;;;4.88;;
55003;SDS011;40900;52.710;6.438;2023-04-20T08:02:39;7.15;;;4.55;;
55003;SDS011;40900;52.710;6.438;2023-04-20T08:05:04;12.15;;;4.18;;
55003;SDS011;40900;52.710;6.438;2023-04-20T08:07:31;8.43;;;4.15;;
55003;SDS011;40900;52.710;6.438;2023-04-20T08:09:57;8.38;;;4.57;;
55003;SDS011;40900;52.710;6.438;2023-04-20T08:12:25;7.88;;;4.38;;
55003;SDS011;40900;52.710;6.438;2023-04-20T08:14:51;9.93;;;4.60;;
55003;SDS011;40900;52.710;6.438;2023-04-20T08:17:16;10.20;;;4.40;;
55003;SDS011;40900;52.710;6.438;2023-04-20T08:19:42;9.10;;;4.78;;
55003;SDS011;40900;52.710;6.438;2023-04-20T08:22:08;6.40;;;4.53;;
55003;SDS011;40900;52.710;6.438;2023-04-20T08:24:36;8.18;;;4.57;;
55003;SDS011;40900;52.710;6.438;2023-04-20T08:27:02;10.98;;;4.80;;
55003;SDS011;40900;52.710;6.438;2023-04-20T08:29:28;9.32;;;5.43;;
55003;SDS011;40900;52.710;6.438;2023-04-20T08:31:53;8.05;;;4.60;;
55003;SDS011;40900;52.710;6.438;2023-04-20T08:34:19;10.20;;;5.05;;
55003;SDS011;40900;52.710;6.438;2023-04-20T08:36:45;7.35;;;4.47;;
55003;SDS011;40900;52.710;6.438;2023-04-20T08:39:12;12.93;;;5.38;;
55003;SDS011;40900;52.710;6.438;2023-04-20T08:41:39;7.10;;;4.80;;
55003;SDS011;40900;52.710;6.438;2023-04-20T08:44:06;14.63;;;5.05;;
55003;SDS011;40900;52.710;6.438;2023-04-20T08:46:32;9.88;;;4.95;;
55003;SDS011;40900;52.710;6.438;2023-04-20T08:48:59;8.40;;;4.85;;
55003;SDS011;40900;52.710;6.438;2023-04-20T08:51:28;8.60;;;4.85;;
55003;SDS011;40900;52.710;6.438;2023-04-20T08:53:58;11.77;;;5.28;;
55003;SDS011;40900;52.710;6.438;2023-04-20T08:56:33;9.48;;;5.20;;
55003;SDS011;40900;52.710;6.438;2023-04-20T08:59:03;7.45;;;5.25;;
55003;SDS011;40900;52.710;6.438;2023-04-20T09:01:30;12.45;;;5.15;;
55003;SDS011;40900;52.710;6.438;2023-04-20T09:03:57;10.15;;;5.03;;
55003;SDS011;40900;52.710;6.438;2023-04-20T09:06:23;8.13;;;5.10;;
55003;SDS011;40900;52.710;6.438;2023-04-20T09:08:49;7.50;;;4.97;;
55003;SDS011;40900;52.710;6.438;2023-04-20T09:11:24;7.38;;;5.38;;
55003;SDS011;40900;52.710;6.438;2023-04-20T09:14:01;10.88;;;5.18;;
55003;SDS011;40900;52.710;6.438;2023-04-20T09:16:30;8.77;;;4.97;;
55003;SDS011;40900;52.710;6.438;2023-04-20T09:18:57;9.70;;;5.88;;
55003;SDS011;40900;52.710;6.438;2023-04-20T09:21:23;12.27;;;5.20;;
55003;SDS011;40900;52.710;6.438;2023-04-20T09:26:23;11.30;;;5.05;;
55003;SDS011;40900;52.710;6.438;2023-04-20T09:28:49;9.43;;;5.10;;
55003;SDS011;40900;52.710;6.438;2023-04-20T09:31:21;10.85;;;5.03;;
55003;SDS011;40900;52.710;6.438;2023-04-20T09:33:54;9.52;;;5.35;;
55003;SDS011;40900;52.710;6.438;2023-04-20T09:36:33;8.43;;;5.65;;
55003;SDS011;40900;52.710;6.438;2023-04-20T09:39:04;13.13;;;6.32;;
55003;SDS011;40900;52.710;6.438;2023-04-20T09:41:35;7.78;;;5.35;;
55003;SDS011;40900;52.710;6.438;2023-04-20T09:44:02;9.77;;;6.00;;
55003;SDS011;40900;52.710;6.438;2023-04-20T09:46:29;9.05;;;5.38;;
55003;SDS011;40900;52.710;6.438;2023-04-20T09:48:57;12.57;;;5.55;;
55003;SDS011;40900;52.710;6.438;2023-04-20T09:51:27;11.02;;;5.65;;
55003;SDS011;40900;52.710;6.438;2023-04-20T09:53:58;8.40;;;5.18;;
55003;SDS011;40900;52.710;6.438;2023-04-20T09:56:25;9.50;;;6.00;;
55003;SDS011;40900;52.710;6.438;2023-04-20T09:58:53;11.07;;;5.43;;
55003;SDS011;40900;52.710;6.438;2023-04-20T10:01:19;7.93;;;5.90;;
55003;SDS011;40900;52.710;6.438;2023-04-20T10:03:46;12.57;;;5.88;;
55003;SDS011;40900;52.710;6.438;2023-04-20T10:06:23;12.23;;;6.00;;
55003;SDS011;40900;52.710;6.438;2023-04-20T10:08:53;9.95;;;5.78;;
55003;SDS011;40900;52.710;6.438;2023-04-20T10:14:00;10.65;;;6.20;;
55003;SDS011;40900;52.710;6.438;2023-04-20T10:16:39;12.60;;;6.40;;
55003;SDS011;40900;52.710;6.438;2023-04-20T10:19:05;8.70;;;5.85;;
55003;SDS011;40900;52.710;6.438;2023-04-20T10:21:31;11.73;;;6.40;;
55003;SDS011;40900;52.710;6.438;2023-04-20T10:24:08;9.52;;;5.97;;
55003;SDS011;40900;52.710;6.438;2023-04-20T10:26:43;11.57;;;6.22;;
55003;SDS011;40900;52.710;6.438;2023-04-20T10:29:10;9.88;;;6.20;;
55003;SDS011;40900;52.710;6.438;2023-04-20T10:31:48;7.72;;;5.70;;
55003;SDS011;40900;52.710;6.438;2023-04-20T10:34:14;8.80;;;6.07;;
55003;SDS011;40900;52.710;6.438;2023-04-20T10:36:40;11.77;;;6.53;;
55003;SDS011;40900;52.710;6.438;2023-04-20T10:41:50;11.30;;;6.93;;
55003;SDS011;40900;52.710;6.438;2023-04-20T10:46:46;10.25;;;6.47;;
55003;SDS011;40900;52.710;6.438;2023-04-20T10:49:12;8.05;;;6.63;;
55003;SDS011;40900;52.710;6.438;2023-04-20T10:51:45;8.23;;;6.32;;
55003;SDS011;40900;52.710;6.438;2023-04-20T10:54:14;8.85;;;6.93;;
55003;SDS011;40900;52.710;6.438;2023-04-20T10:56:41;11.23;;;6.65;;
55003;SDS011;40900;52.710;6.438;2023-04-20T10:59:09;11.82;;;6.30;;
55003;SDS011;40900;52.710;6.438;2023-04-20T11:01:36;14.13;;;7.57;;
55003;SDS011;40900;52.710;6.438;2023-04-20T11:04:02;13.43;;;7.03;;
55003;SDS011;40900;52.710;6.438;2023-04-20T11:06:28;10.05;;;7.15;;
55003;SDS011;40900;52.710;6.438;2023-04-20T11:08:55;13.98;;;7.32;;
55003;SDS011;40900;52.710;6.438;2023-04-20T11:11:22;10.02;;;6.97;;
55003;SDS011;40900;52.710;6.438;2023-04-20T11:13:51;9.18;;;7.22;;
55003;SDS011;40900;52.710;6.438;2023-04-20T11:16:29;9.05;;;7.18;;
55003;SDS011;40900;52.710;6.438;2023-04-20T11:18:57;9.18;;;6.75;;
55003;SDS011;40900;52.710;6.438;2023-04-20T11:21:23;8.45;;;7.30;;
55003;SDS011;40900;52.710;6.438;2023-04-20T11:24:22;9.65;;;6.72;;
55003;SDS011;40900;52.710;6.438;2023-04-20T11:26:50;10.77;;;7.30;;
55003;SDS011;40900;52.710;6.438;2023-04-20T11:29:35;9.77;;;6.72;;
55003;SDS011;40900;52.710;6.438;2023-04-20T11:32:07;9.80;;;6.82;;
55003;SDS011;40900;52.710;6.438;2023-04-20T11:34:35;9.40;;;6.60;;
55003;SDS011;40900;52.710;6.438;2023-04-20T11:37:05;9.55;;;6.57;;
55003;SDS011;40900;52.710;6.438;2023-04-20T11:39:32;9.68;;;5.85;;
55003;SDS011;40900;52.710;6.438;2023-04-20T11:41:58;10.70;;;6.78;;
55003;SDS011;40900;52.710;6.438;2023-04-20T11:44:24;12.15;;;6.63;;
55003;SDS011;40900;52.710;6.438;2023-04-20T11:46:51;7.65;;;6.13;;
55003;SDS011;40900;52.710;6.438;2023-04-20T11:49:21;9.18;;;6.65;;
55003;SDS011;40900;52.710;6.438;2023-04-20T11:51:48;10.85;;;6.43;;
55003;SDS011;40900;52.710;6.438;2023-04-20T11:54:14;9.52;;;6.63;;
55003;SDS011;40900;52.710;6.438;2023-04-20T11:56:40;11.07;;;6.70;;
55003;SDS011;40900;52.710;6.438;2023-04-20T11:59:06;10.20;;;6.88;;
55003;SDS011;40900;52.710;6.438;2023-04-20T12:01:34;11.68;;;7.15;;
55003;SDS011;40900;52.710;6.438;2023-04-20T12:04:00;11.63;;;7.93;;
55003;SDS011;40900;52.710;6.438;2023-04-20T12:06:27;10.68;;;7.45;;
55003;SDS011;40900;52.710;6.438;2023-04-20T12:08:53;9.30;;;7.47;;
55003;SDS011;40900;52.710;6.438;2023-04-20T12:11:20;11.07;;;7.13;;
55003;SDS011;40900;52.710;6.438;2023-04-20T12:13:48;11.65;;;7.55;;
55003;SDS011;40900;52.710;6.438;2023-04-20T12:16:14;10.50;;;7.30;;
55003;SDS011;40900;52.710;6.438;2023-04-20T12:18:40;10.27;;;6.85;;
55003;SDS011;40900;52.710;6.438;2023-04-20T12:21:06;9.75;;;6.97;;
55003;SDS011;40900;52.710;6.438;2023-04-20T12:23:33;10.27;;;7.47;;
55003;SDS011;40900;52.710;6.438;2023-04-20T12:26:01;10.07;;;7.25;;
55003;SDS011;40900;52.710;6.438;2023-04-20T12:28:28;12.05;;;7.10;;
55003;SDS011;40900;52.710;6.438;2023-04-20T12:30:54;11.40;;;8.35;;
55003;SDS011;40900;52.710;6.438;2023-04-20T12:33:20;11.57;;;7.10;;
55003;SDS011;40900;52.710;6.438;2023-04-20T12:35:45;10.93;;;7.65;;
55003;SDS011;40900;52.710;6.438;2023-04-20T12:38:11;8.05;;;6.90;;
55003;SDS011;40900;52.710;6.438;2023-04-20T12:40:37;11.82;;;7.40;;
55003;SDS011;40900;52.710;6.438;2023-04-20T12:43:03;11.48;;;7.25;;
55003;SDS011;40900;52.710;6.438;2023-04-20T12:45:28;9.70;;;6.70;;
55003;SDS011;40900;52.710;6.438;2023-04-20T12:47:55;11.45;;;7.68;;
55003;SDS011;40900;52.710;6.438;2023-04-20T12:50:22;10.25;;;7.43;;
55003;SDS011;40900;52.710;6.438;2023-04-20T12:52:48;9.48;;;6.85;;
55003;SDS011;40900;52.710;6.438;2023-04-20T12:55:16;10.63;;;7.47;;
55003;SDS011;40900;52.710;6.438;2023-04-20T12:57:42;10.32;;;7.60;;
55003;SDS011;40900;52.710;6.438;2023-04-20T13:00:09;11.57;;;7.97;;
55003;SDS011;40900;52.710;6.438;2023-04-20T13:02:39;13.35;;;7.28;;
55003;SDS011;40900;52.710;6.438;2023-04-20T13:05:05;9.65;;;7.20;;
55003;SDS011;40900;52.710;6.438;2023-04-20T13:07:31;11.18;;;7.40;;
55003;SDS011;40900;52.710;6.438;2023-04-20T13:09:57;11.43;;;7.10;;
55003;SDS011;40900;52.710;6.438;2023-04-20T13:12:24;8.98;;;7.13;;
55003;SDS011;40900;52.710;6.438;2023-04-20T13:14:50;11.80;;;7.63;;
55003;SDS011;40900;52.710;6.438;2023-04-20T13:17:16;8.05;;;6.40;;
55003;SDS011;40900;52.710;6.438;2023-04-20T13:19:42;11.85;;;7.30;;
55003;SDS011;40900;52.710;6.438;2023-04-20T13:22:10;11.25;;;6.97;;
55003;SDS011;40900;52.710;6.438;2023-04-20T13:24:35;8.73;;;7.00;;
55003;SDS011;40900;52.710;6.438;2023-04-20T13:27:01;10.65;;;7.20;;
55003;SDS011;40900;52.710;6.438;2023-04-20T13:29:27;10.30;;;7.00;;
55003;SDS011;40900;52.710;6.438;2023-04-20T13:31:53;9.52;;;7.70;;
55003;SDS011;40900;52.710;6.438;2023-04-20T13:34:18;9.13;;;7.00;;
55003;SDS011;40900;52.710;6.438;2023-04-20T13:36:44;8.43;;;6.85;;
55003;SDS011;40900;52.710;6.438;2023-04-20T13:39:10;11.43;;;7.57;;
55003;SDS011;40900;52.710;6.438;2023-04-20T13:41:36;9.00;;;7.50;;
55003;SDS011;40900;52.710;6.438;2023-04-20T13:44:03;13.02;;;7.43;;
55003;SDS011;40900;52.710;6.438;2023-04-20T13:46:29;9.43;;;7.20;;
55003;SDS011;40900;52.710;6.438;2023-04-20T13:48:56;9.00;;;6.88;;
55003;SDS011;40900;52.710;6.438;2023-04-20T13:51:21;8.85;;;6.65;;
55003;SDS011;40900;52.710;6.438;2023-04-20T13:53:48;10.30;;;7.22;;
55003;SDS011;40900;52.710;6.438;2023-04-20T13:56:17;10.98;;;7.30;;
55003;SDS011;40900;52.710;6.438;2023-04-20T13:58:43;10.80;;;7.55;;
55003;SDS011;40900;52.710;6.438;2023-04-20T14:01:09;9.68;;;6.50;;
55003;SDS011;40900;52.710;6.438;2023-04-20T14:03:37;10.88;;;6.90;;
55003;SDS011;40900;52.710;6.438;2023-04-20T14:06:03;9.90;;;7.30;;
55003;SDS011;40900;52.710;6.438;2023-04-20T14:08:29;10.30;;;6.60;;
55003;SDS011;40900;52.710;6.438;2023-04-20T14:10:54;7.82;;;5.50;;
55003;SDS011;40900;52.710;6.438;2023-04-20T14:13:21;8.68;;;6.07;;
55003;SDS011;40900;52.710;6.438;2023-04-20T14:15:47;8.50;;;6.18;;
55003;SDS011;40900;52.710;6.438;2023-04-20T14:18:13;6.65;;;5.75;;
55003;SDS011;40900;52.710;6.438;2023-04-20T14:20:39;7.00;;;5.05;;
55003;SDS011;40900;52.710;6.438;2023-04-20T14:23:04;8.52;;;5.85;;
55003;SDS011;40900;52.710;6.438;2023-04-20T14:25:30;6.25;;;5.03;;
55003;SDS011;40900;52.710;6.438;2023-04-20T14:27:56;11.65;;;6.28;;
55003;SDS011;40900;52.710;6.438;2023-04-20T14:30:21;9.30;;;6.78;;
55003;SDS011;40900;52.710;6.438;2023-04-20T14:32:54;8.63;;;5.85;;
55003;SDS011;40900;52.710;6.438;2023-04-20T14:35:24;10.20;;;5.90;;
55003;SDS011;40900;52.710;6.438;2023-04-20T14:37:51;7.45;;;5.90;;
55003;SDS011;40900;52.710;6.438;2023-04-20T14:40:17;8.75;;;5.82;;
55003;SDS011;40900;52.710;6.438;2023-04-20T14:42:44;7.90;;;6.00;;
55003;SDS011;40900;52.710;6.438;2023-04-20T14:45:11;9.43;;;6.50;;
55003;SDS011;40900;52.710;6.438;2023-04-20T14:47:37;7.57;;;6.32;;
55003;SDS011;40900;52.710;6.438;2023-04-20T14:50:05;7.03;;;6.30;;